Time;durP1;ratioP1;P1;durP2;ratioP2;P2;SDS_P1;SDS_P2;PMS_P1;PMS_P2;Temp;Humidity;BMP_temperature;BMP_pressure;BME280_temperature;BME280_humidity;BME280_pressure;Samples;Min_cycle;Max_cycle;Signal;HPM_P1;HPM_P2
2021/04/24 00:01:53;;;;;;;19.53;8.30;;;;;;;4.60;51.77;101414.55;5003326;58;1136584;-71
2021/04/24 00:06:59;;;;;;;16.45;8.13;;;;;;;4.62;52.15;101411.88;5003090;58;1136798;-71
2021/04/24 00:12:05;;;;;;;18.40;6.90;;;;;;;4.56;52.03;101409.91;5003074;58;1136863;-71
2021/04/24 00:17:11;;;;;;;15.07;6.30;;;;;;;4.50;52.13;101402.27;5003057;58;1136400;-71
2021/04/24 00:22:17;;;;;;;21.37;6.97;;;;;;;4.44;52.37;101409.50;5002785;58;1136775;-72
2021/04/24 00:27:22;;;;;;;21.37;6.62;;;;;;;4.45;53.02;101409.90;5002650;58;1136535;-72
2021/04/24 00:32:28;;;;;;;18.63;7.20;;;;;;;4.47;53.38;101410.70;5003046;58;1136925;-71
2021/04/24 00:37:33;;;;;;;11.33;5.17;;;;;;;4.54;53.64;101403.02;5003104;58;1136722;-72
2021/04/24 00:42:40;;;;;;;15.97;6.47;;;;;;;4.54;53.64;101403.02;5002961;58;1136635;-71
2021/04/24 00:47:46;;;;;;;12.50;5.00;;;;;;;4.52;54.01;101404.84;5002783;58;1136784;-71
2021/04/24 00:52:52;;;;;;;11.30;5.10;;;;;;;4.54;54.31;101397.77;5002008;58;1160605;-72
2021/04/24 00:57:59;;;;;;;7.70;4.22;;;;;;;4.56;54.39;101402.50;5002596;58;1136783;-71
2021/04/24 01:03:06;;;;;;;14.35;4.60;;;;;;;4.53;54.44;101403.47;5002835;58;1134790;-71
2021/04/24 01:08:12;;;;;;;13.98;5.62;;;;;;;4.56;54.54;101399.88;5002603;58;1136740;-72
2021/04/24 01:13:18;;;;;;;13.60;4.93;;;;;;;4.60;54.63;101410.63;5002692;58;1136804;-71
2021/04/24 01:18:24;;;;;;;9.97;4.60;;;;;;;4.67;55.21;101404.70;5002966;58;1136959;-72
2021/04/24 01:23:30;;;;;;;13.10;5.83;;;;;;;4.67;55.75;101409.48;5003186;58;1134642;-72
2021/04/24 01:28:36;;;;;;;11.97;5.30;;;;;;;4.73;56.49;101393.53;5002769;58;1136985;-71
2021/04/24 01:33:42;;;;;;;11.10;5.33;;;;;;;4.69;57.16;101398.95;5002826;58;1137053;-72
2021/04/24 01:38:47;;;;;;;11.30;5.70;;;;;;;4.71;57.63;101394.50;5002989;58;1136777;-71
2021/04/24 01:43:56;;;;;;;11.10;5.07;;;;;;;4.79;58.19;101391.96;5001060;58;1254930;-71
2021/04/24 01:49:02;;;;;;;11.25;4.42;;;;;;;4.87;58.60;101384.66;5003006;58;1136416;-72
2021/04/24 01:54:08;;;;;;;16.50;6.92;;;;;;;4.90;58.87;101379.27;5003205;58;1136525;-71
2021/04/24 01:59:16;;;;;;;17.97;6.70;;;;;;;4.88;59.35;101381.12;5008965;58;1136556;-72
2021/04/24 02:04:23;;;;;;;17.07;6.37;;;;;;;4.84;59.44;101385.23;5015906;58;1136781;-73
2021/04/24 02:09:29;;;;;;;13.83;6.73;;;;;;;4.84;59.70;101383.47;5015863;58;1136787;-73
2021/04/24 02:14:47;;;;;;;16.30;7.50;;;;;;;4.79;60.00;101380.62;5015383;58;1136746;-73
2021/04/24 02:19:54;;;;;;;11.77;5.73;;;;;;;4.83;60.55;101377.83;5015734;58;1136695;-72
2021/04/24 02:25:03;;;;;;;17.68;6.12;;;;;;;4.81;61.01;101378.80;5015796;58;1142831;-71
2021/04/24 02:30:12;;;;;;;17.23;5.75;;;;;;;4.74;60.86;101379.48;5015879;58;1136722;-72
2021/04/24 02:35:42;;;;;;;10.47;5.23;;;;;;;4.72;61.11;101379.18;5015672;58;1136742;-73
2021/04/24 02:40:49;;;;;;;16.00;5.57;;;;;;;4.71;61.21;101382.72;5015884;58;1136726;-73
2021/04/24 02:45:56;;;;;;;14.83;5.58;;;;;;;4.72;61.32;101375.25;5030684;58;1136697;-74
2021/04/24 02:51:02;;;;;;;12.98;5.47;;;;;;;4.77;61.88;101361.48;5015092;58;1136480;-74
2021/04/24 02:56:07;;;;;;;13.62;5.67;;;;;;;4.85;61.88;101355.50;5015900;58;1136631;-73
2021/04/24 03:01:15;;;;;;;12.70;5.40;;;;;;;4.91;62.19;101357.84;5046313;56;1138938;-72
2021/04/24 03:06:20;;;;;;;14.67;6.50;;;;;;;5.00;62.41;101356.18;5053544;56;1138865;-74
2021/04/24 03:11:28;;;;;;;12.53;6.43;;;;;;;5.12;62.51;101362.22;5064015;57;1136631;-72
2021/04/24 03:16:35;;;;;;;15.17;6.17;;;;;;;5.11;62.62;101361.82;5077067;56;1136717;-72
2021/04/24 03:21:40;;;;;;;19.80;6.13;;;;;;;5.15;62.98;101367.34;5085512;56;1136674;-72
2021/04/24 03:26:46;;;;;;;20.93;7.23;;;;;;;5.11;62.90;101360.97;5097389;56;1136407;-73
2021/04/24 03:31:52;;;;;;;11.20;5.90;;;;;;;5.12;62.95;101358.75;5097436;56;1136580;-74
2021/04/24 03:36:57;;;;;;;17.37;5.53;;;;;;;5.14;63.01;101370.03;5097598;56;1136643;-72
2021/04/24 03:42:03;;;;;;;15.28;5.33;;;;;;;5.12;63.29;101367.47;5097446;56;1136663;-73
2021/04/24 03:47:09;;;;;;;18.45;7.03;;;;;;;5.03;63.44;101373.09;5097260;56;1136453;-72
2021/04/24 03:52:15;;;;;;;12.00;6.23;;;;;;;4.99;63.48;101376.75;5097158;56;1136703;-71
2021/04/24 03:57:21;;;;;;;14.43;5.53;;;;;;;4.98;63.88;101362.39;5096940;56;1136723;-73
2021/04/24 04:02:27;;;;;;;14.90;6.03;;;;;;;5.04;64.04;101368.22;5096793;56;1136676;-74
2021/04/24 04:07:32;;;;;;;11.87;4.93;;;;;;;5.04;63.86;101363.47;5096662;56;1139053;-72
2021/04/24 04:12:38;;;;;;;15.73;6.20;;;;;;;5.09;64.10;101356.24;5096519;56;1138792;-72
2021/04/24 04:18:04;;;;;;;15.97;7.00;;;;;;;5.14;64.43;101342.50;5096699;56;1136821;-74
2021/04/24 04:23:11;;;;;;;13.03;5.40;;;;;;;5.19;64.31;101342.70;5097049;56;1136802;-72
2021/04/24 04:28:17;;;;;;;40.30;14.30;;;;;;;5.21;64.21;101348.71;5096706;56;1136710;-74
2021/04/24 04:33:23;;;;;;;25.03;9.87;;;;;;;5.10;63.63;101347.46;5096669;56;1138572;-74
2021/04/24 04:38:29;;;;;;;20.93;8.10;;;;;;;4.92;63.63;101346.45;5096429;56;1136449;-74
2021/04/24 04:43:34;;;;;;;11.13;5.17;;;;;;;4.75;64.03;101348.90;5096897;56;1136789;-73
2021/04/24 04:48:40;;;;;;;10.27;5.10;;;;;;;4.57;64.85;101353.98;5092270;56;1136521;-73
2021/04/24 04:53:46;;;;;;;13.57;4.03;;;;;;;4.50;65.22;101356.89;5096639;57;1136420;-73
2021/04/24 04:58:51;;;;;;;12.10;3.70;;;;;;;4.49;65.40;101358.66;5096616;57;1136459;-74
2021/04/24 05:03:57;;;;;;;11.67;3.93;;;;;;;4.50;65.33;101374.77;5094190;57;1256824;-71
2021/04/24 05:09:03;;;;;;;5.62;3.65;;;;;;;4.48;65.56;101371.35;5096412;57;1136556;-74
2021/04/24 05:14:08;;;;;;;9.44;3.52;;;;;;;4.53;66.14;101370.73;5096633;57;1134650;-73
2021/04/24 05:19:14;;;;;;;14.00;3.98;;;;;;;4.67;65.91;101371.48;5096700;57;1134362;-72
2021/04/24 05:24:20;;;;;;;9.73;3.57;;;;;;;4.76;65.89;101372.87;5096343;57;1136909;-74
2021/04/24 05:29:26;;;;;;;11.57;2.80;;;;;;;4.86;66.16;101376.86;5096440;57;1134467;-73
2021/04/24 05:34:33;;;;;;;6.78;3.40;;;;;;;5.03;65.75;101367.86;5096085;57;1136477;-74
2021/04/24 05:39:38;;;;;;;11.47;3.03;;;;;;;5.22;65.66;101363.98;5096472;57;1134324;-71
2021/04/24 05:44:47;;;;;;;11.07;3.87;;;;;;;5.40;65.40;101364.98;5096287;57;1136474;-73
2021/04/24 05:49:53;;;;;;;18.93;4.83;;;;;;;5.53;64.75;101356.52;5096532;57;1136263;-72
2021/04/24 05:54:59;;;;;;;7.08;2.70;;;;;;;5.70;64.46;101362.34;5088216;57;1136642;-73
2021/04/24 06:00:09;;;;;;;3.92;2.83;;;;;;;5.84;63.43;101360.42;5081597;57;1134199;-73
2021/04/24 06:05:15;;;;;;;7.83;2.72;;;;;;;5.88;63.13;101357.63;5080196;56;1134620;-72
2021/04/24 06:10:21;;;;;;;4.87;2.52;;;;;;;5.89;62.70;101357.17;5059970;56;1134343;-71
2021/04/24 06:15:27;;;;;;;5.07;2.60;;;;;;;5.93;62.79;101358.29;5025909;56;1134705;-72
2021/04/24 06:20:33;;;;;;;8.30;2.97;;;;;;;6.06;63.04;101352.48;5044718;57;1134594;-72
2021/04/24 06:25:39;;;;;;;8.40;3.50;;;;;;;6.17;62.28;101356.31;5060699;56;1134701;-73
2021/04/24 06:30:45;;;;;;;10.07;2.60;;;;;;;6.33;62.35;101359.94;5073457;56;1134606;-72
2021/04/24 06:35:50;;;;;;;10.07;3.03;;;;;;;6.54;62.10;101362.03;5028579;56;1136798;-73
2021/04/24 06:40:56;;;;;;;3.00;2.33;;;;;;;6.75;62.01;101363.22;5044671;57;1136697;-73
2021/04/24 06:46:01;;;;;;;9.67;3.90;;;;;;;6.88;60.57;101365.64;5040923;56;1135130;-71
2021/04/24 06:51:07;;;;;;;6.15;2.60;;;;;;;6.82;61.03;101368.58;5084606;57;1135069;-70
2021/04/24 06:56:13;;;;;;;6.60;3.70;;;;;;;6.78;60.74;101373.59;5085772;57;1134604;-70
2021/04/24 07:01:19;;;;;;;4.60;2.50;;;;;;;6.77;61.25;101372.73;5010595;57;1134675;-72
2021/04/24 07:06:24;;;;;;;12.77;2.47;;;;;;;6.80;60.92;101367.80;5078939;57;1134586;-71
2021/04/24 07:11:30;;;;;;;5.30;3.20;;;;;;;6.79;60.98;101380.09;5098511;57;1136395;-73
2021/04/24 07:16:36;;;;;;;3.33;2.13;;;;;;;6.78;61.07;101369.19;5098667;57;1134285;-72
2021/04/24 07:21:42;;;;;;;11.57;4.10;;;;;;;6.80;61.00;101373.06;5097021;57;1134382;-72
2021/04/24 07:26:48;;;;;;;11.60;4.10;;;;;;;6.85;61.02;101380.27;5071535;56;1136251;-71
2021/04/24 07:31:53;;;;;;;10.77;4.07;;;;;;;6.87;60.65;101370.54;5098759;56;1136308;-72
2021/04/24 07:37:00;;;;;;;8.93;2.73;;;;;;;6.93;60.72;101381.59;5094562;56;1136201;-72
2021/04/24 07:42:06;;;;;;;3.77;2.17;;;;;;;6.99;60.49;101381.30;5081740;56;1134530;-71
2021/04/24 07:47:12;;;;;;;12.43;5.33;;;;;;;7.03;60.11;101389.87;5013406;58;1134581;-71
2021/04/24 07:52:19;;;;;;;6.20;4.10;;;;;;;7.08;59.86;101380.45;5013293;58;1136747;-72
2021/04/24 07:57:28;;;;;;;10.97;3.77;;;;;;;7.08;59.44;101383.94;5013157;58;1134603;-71
2021/04/24 08:02:32;;;;;;;7.87;3.23;;;;;;;7.03;58.69;101387.24;5013398;56;1136681;-72
2021/04/24 08:07:38;;;;;;;63.90;29.50;;;;;;;6.98;59.21;101386.17;5013220;57;1134642;-71
2021/04/24 08:12:46;;;;;;;188.23;67.73;;;;;;;7.01;59.58;101386.03;5013106;58;1138791;-70
2021/04/24 08:17:51;;;;;;;308.10;101.07;;;;;;;7.03;59.14;101385.92;5047456;57;1140952;-72
2021/04/24 08:22:57;;;;;;;369.43;97.57;;;;;;;7.10;58.94;101386.03;5098441;56;1142969;-71
2021/04/24 08:28:02;;;;;;;85.50;23.00;;;;;;;7.21;57.36;101390.75;5075811;56;1141140;-71
2021/04/24 08:33:09;;;;;;;64.90;26.17;;;;;;;7.27;57.82;101380.78;5067093;57;1139017;-71
2021/04/24 08:38:14;;;;;;;10.70;4.37;;;;;;;7.32;57.40;101377.47;5053332;57;1138763;-70
2021/04/24 08:43:21;;;;;;;3.30;2.37;;;;;;;7.41;57.61;101376.99;5049151;56;1136690;-70
2021/04/24 08:48:26;;;;;;;29.57;13.00;;;;;;;7.50;56.28;101372.17;5098495;56;1134624;-71
2021/04/24 08:53:32;;;;;;;13.17;6.53;;;;;;;7.61;56.50;101376.45;5098252;56;1138789;-73
2021/04/24 08:58:37;;;;;;;5.00;3.50;;;;;;;7.71;56.27;101379.83;5083321;56;1136734;-72
2021/04/24 09:03:43;;;;;;;6.63;4.23;;;;;;;7.84;56.75;101383.13;5098856;56;1134826;-73
2021/04/24 09:08:58;;;;;;;7.83;3.27;;;;;;;7.98;57.28;101372.72;5087069;56;1134314;-70
2021/04/24 09:14:16;;;;;;;4.00;2.90;;;;;;;8.02;56.97;101365.05;5078675;57;1134430;-70
2021/04/24 09:19:30;;;;;;;8.60;2.55;;;;;;;8.11;56.54;101369.34;5097657;57;1134586;-73
2021/04/24 09:24:44;;;;;;;6.43;3.00;;;;;;;8.19;56.32;101363.67;5098346;57;1134551;-70
2021/04/24 09:29:52;;;;;;;3.90;1.90;;;;;;;8.36;56.93;101352.25;5093906;57;1134346;-72
2021/04/24 09:34:58;;;;;;;3.87;2.70;;;;;;;8.65;56.08;101342.71;5090912;57;1134603;-74
2021/04/24 09:40:11;;;;;;;12.37;3.53;;;;;;;8.91;56.42;101343.39;5080165;56;1134554;-72
2021/04/24 09:45:35;;;;;;;8.70;4.00;;;;;;;9.29;55.12;101339.85;5086917;56;1136733;-72
2021/04/24 09:50:41;;;;;;;3.27;2.33;;;;;;;9.50;54.29;101332.42;5089062;56;1136706;-72
2021/04/24 09:55:57;;;;;;;4.63;3.93;;;;;;;9.48;52.72;101336.94;5086904;57;1136852;-72
2021/04/24 10:01:26;;;;;;;4.20;2.20;;;;;;;9.37;53.08;101357.39;5084925;57;1134670;-71
2021/04/24 10:06:42;;;;;;;7.07;3.47;;;;;;;9.20;53.52;101327.65;5091469;57;1134167;-72
2021/04/24 10:11:55;;;;;;;6.83;2.77;;;;;;;9.12;53.47;101339.52;5095242;57;1134391;-71
2021/04/24 10:17:04;;;;;;;236.50;106.37;;;;;;;9.01;52.96;101342.41;5086333;57;1134198;-73
2021/04/24 10:22:19;;;;;;;11.20;3.27;;;;;;;8.88;53.65;101354.58;5067605;57;1142706;-72
2021/04/24 10:27:24;;;;;;;10.70;4.93;;;;;;;8.73;52.86;101354.52;5086972;57;1136201;-76
2021/04/24 10:32:30;;;;;;;22.23;10.50;;;;;;;8.57;52.49;101368.64;5086713;57;1136401;-75
2021/04/24 10:37:36;;;;;;;19.17;10.90;;;;;;;8.11;58.04;101368.03;5086868;57;1138565;-76
2021/04/24 10:42:52;;;;;;;196.20;93.03;;;;;;;7.70;58.49;101372.86;5086771;57;1138611;-77
2021/04/24 10:47:59;;;;;;;88.00;47.10;;;;;;;7.53;59.34;101374.66;5086591;57;1140820;-77
2021/04/24 10:53:26;;;;;;;70.07;38.90;;;;;;;7.40;59.90;101367.39;5068710;57;1138761;-77
2021/04/24 10:58:34;;;;;;;7.17;4.53;;;;;;;7.47;60.12;101364.45;5060083;57;1140583;-73
2021/04/24 11:03:52;;;;;;;15.67;13.00;;;;;;;7.50;59.72;101368.22;5052276;57;1136442;-75
2021/04/24 11:09:20;;;;;;;11.80;5.77;;;;;;;7.46;59.75;101365.39;5014160;57;1138374;-77
2021/04/24 11:14:26;;;;;;;8.83;3.52;;;;;;;7.44;59.86;101364.61;5074338;57;1136352;-76
2021/04/24 11:19:46;;;;;;;16.77;4.97;;;;;;;7.54;60.18;101361.88;5051209;57;1134347;-72
2021/04/24 11:24:52;;;;;;;9.93;2.53;;;;;;;7.61;59.96;101359.34;5015369;57;1137132;-74
2021/04/24 11:29:58;;;;;;;10.87;3.83;;;;;;;7.76;60.65;101347.53;5017167;57;1134249;-73
2021/04/24 11:35:14;;;;;;;5.53;3.00;;;;;;;7.91;60.32;101350.29;5012908;58;1136663;-74
2021/04/24 11:40:27;;;;;;;7.70;2.93;;;;;;;8.04;60.17;101349.55;5013383;58;1134269;-75
2021/04/24 11:45:53;;;;;;;5.30;2.57;;;;;;;8.28;60.33;101340.77;5026076;57;1134303;-74
2021/04/24 11:50:59;;;;;;;6.03;3.80;;;;;;;8.61;59.99;101341.17;5017246;57;1134236;-74
2021/04/24 11:56:06;;;;;;;10.13;3.80;;;;;;;8.81;59.59;101341.76;5062678;57;1134228;-74
2021/04/24 12:01:26;;;;;;;4.72;2.35;;;;;;;8.98;59.17;101342.11;4952179;57;1136352;-74
2021/04/24 12:06:42;;;;;;;4.97;3.40;;;;;;;9.10;57.99;101339.22;4957328;57;1134145;-76
2021/04/24 12:12:00;;;;;;;8.37;3.40;;;;;;;9.15;57.24;101347.73;4967324;57;1134204;-72
2021/04/24 12:17:13;;;;;;;4.63;2.07;;;;;;;9.17;56.53;101341.40;5076892;57;1134163;-73
2021/04/24 12:22:23;;;;;;;3.97;1.83;;;;;;;9.23;54.74;101345.95;5099025;57;1134859;-74
2021/04/24 12:27:34;;;;;;;22.67;10.30;;;;;;;9.26;53.10;101342.66;5098712;57;1134661;-72
2021/04/24 12:32:44;;;;;;;61.35;20.10;;;;;;;9.40;53.66;101340.05;5098124;57;1138854;-76
2021/04/24 12:38:12;;;;;;;37.63;14.27;;;;;;;9.51;51.04;101329.69;5098276;57;1140992;-75
2021/04/24 12:43:29;;;;;;;16.27;6.45;;;;;;;9.71;50.95;101325.84;5098012;57;1140890;-74
2021/04/24 12:48:41;;;;;;;14.17;5.87;;;;;;;9.83;50.50;101318.95;5098388;56;1138709;-73
2021/04/24 12:53:51;;;;;;;4.40;2.30;;;;;;;9.88;50.36;101312.93;5098004;56;1138754;-73
2021/04/24 12:59:04;;;;;;;14.00;4.50;;;;;;;9.88;50.07;101326.98;5098401;56;1136507;-76
2021/04/24 13:04:17;;;;;;;12.10;2.40;;;;;;;9.90;50.19;101318.13;5098283;56;1138648;-74
2021/04/24 13:09:33;;;;;;;6.67;2.17;;;;;;;9.93;50.72;101318.75;5094029;56;1138420;-75
2021/04/24 13:14:50;;;;;;;8.57;4.13;;;;;;;10.16;49.29;101315.53;5098205;56;1137302;-74
2021/04/24 13:20:01;;;;;;;5.10;1.97;;;;;;;10.37;46.62;101307.23;5085952;57;1138798;-75
2021/04/24 13:25:12;;;;;;;3.57;1.90;;;;;;;10.38;45.22;101300.52;5084878;56;1147098;-74
2021/04/24 13:30:23;;;;;;;2.85;1.70;;;;;;;10.29;44.41;101294.48;4998469;58;1138963;-73
2021/04/24 13:35:54;;;;;;;3.07;1.40;;;;;;;10.11;43.63;101289.86;4918294;58;1138366;-76
2021/04/24 13:41:15;;;;;;;4.57;1.97;;;;;;;9.96;44.36;101291.30;5004616;57;1138514;-75
2021/04/24 13:46:27;;;;;;;6.20;3.40;;;;;;;9.90;44.64;101299.16;5004901;57;1136367;-76
2021/04/24 13:51:33;;;;;;;6.83;3.10;;;;;;;9.88;45.24;101295.75;5004680;57;1136168;-73
2021/04/24 13:56:40;;;;;;;18.27;8.07;;;;;;;9.82;46.13;101290.37;5004940;57;1136296;-75
2021/04/24 14:01:46;;;;;;;4.60;2.03;;;;;;;9.85;46.93;101295.94;5004279;57;1138754;-74
2021/04/24 14:06:54;;;;;;;78.37;34.37;;;;;;;10.34;49.00;101285.80;5004795;57;1136386;-73
2021/04/24 14:12:01;;;;;;;5.53;3.17;;;;;;;10.72;45.09;101274.02;5003873;57;1142563;-76
2021/04/24 14:17:07;;;;;;;7.17;2.43;;;;;;;10.66;44.79;101266.51;5004884;57;1138229;-75
2021/04/24 14:22:15;;;;;;;6.00;2.70;;;;;;;10.67;45.03;101268.20;5098408;56;1138801;-74
2021/04/24 14:27:20;;;;;;;4.63;3.60;;;;;;;10.79;45.42;101266.06;5098070;56;1138598;-74
2021/04/24 14:32:26;;;;;;;3.55;2.33;;;;;;;11.03;44.08;101262.70;5098247;56;1138398;-75
2021/04/24 14:37:32;;;;;;;7.83;3.10;;;;;;;11.16;43.69;101262.24;5097830;56;1138453;-74
2021/04/24 14:42:38;;;;;;;70.70;34.87;;;;;;;11.27;42.03;101249.98;5098127;56;1138771;-74
2021/04/24 14:47:44;;;;;;;17.07;11.00;;;;;;;11.18;42.41;101266.96;5097235;56;1142862;-73
2021/04/24 14:52:50;;;;;;;10.80;5.73;;;;;;;11.11;42.28;101263.91;5097975;56;1142668;-74
2021/04/24 14:57:55;;;;;;;10.03;3.80;;;;;;;11.18;43.56;101259.02;5098183;56;1140547;-74
2021/04/24 15:03:01;;;;;;;12.20;2.93;;;;;;;11.12;42.68;101251.04;5098215;56;1140625;-73
2021/04/24 15:08:07;;;;;;;3.67;2.30;;;;;;;10.89;42.18;101253.91;5098191;56;1140483;-75
2021/04/24 15:13:13;;;;;;;7.40;1.67;;;;;;;10.67;43.61;101256.77;5098360;56;1138818;-75
2021/04/24 15:18:19;;;;;;;7.87;2.73;;;;;;;10.65;43.05;101254.23;5099094;56;1138305;-75
2021/04/24 15:23:26;;;;;;;14.90;5.40;;;;;;;10.99;44.88;101247.53;5062309;56;1138363;-75
2021/04/24 15:28:31;;;;;;;55.20;18.73;;;;;;;11.26;43.82;101237.70;5099938;57;1140469;-74
2021/04/24 15:33:37;;;;;;;67.00;26.73;;;;;;;11.48;41.37;101239.69;5099546;57;1142910;-75
2021/04/24 15:38:42;;;;;;;57.93;20.27;;;;;;;11.66;42.30;101237.55;5093174;57;1142488;-75
2021/04/24 15:43:48;;;;;;;18.60;6.40;;;;;;;11.64;39.77;101238.13;5099645;57;1142946;-72
2021/04/24 15:48:54;;;;;;;8.13;3.30;;;;;;;11.43;39.09;101239.18;5099882;57;1140885;-72
2021/04/24 15:54:01;;;;;;;7.83;2.73;;;;;;;11.14;39.61;101241.20;5100093;57;1138983;-74
2021/04/24 15:59:07;;;;;;;12.20;3.80;;;;;;;10.99;39.64;101246.21;5100052;57;1138981;-76
2021/04/24 16:04:13;;;;;;;5.60;2.60;;;;;;;10.88;40.17;101240.77;5099937;57;1140817;-75
2021/04/24 16:09:19;;;;;;;42.58;18.00;;;;;;;11.07;38.72;101233.28;5100073;57;1139022;-75
2021/04/24 16:14:25;;;;;;;6.08;2.40;;;;;;;11.32;39.31;101223.64;5099684;57;1142918;-74
2021/04/24 16:19:30;;;;;;;8.53;2.97;;;;;;;11.52;36.66;101222.63;5099851;57;1138811;-73
2021/04/24 16:24:36;;;;;;;4.07;1.80;;;;;;;11.38;35.39;101223.23;5089155;57;1138854;-74
2021/04/24 16:29:42;;;;;;;10.00;4.37;;;;;;;11.11;33.45;101218.90;5087465;57;1138799;-75
2021/04/24 16:34:48;;;;;;;6.40;3.33;;;;;;;10.85;35.22;101230.38;5087428;57;1140852;-74
2021/04/24 16:39:54;;;;;;;4.23;3.03;;;;;;;10.70;35.70;101223.48;5086359;57;1138626;-76
2021/04/24 16:45:00;;;;;;;5.60;3.17;;;;;;;10.60;36.88;101227.70;5087425;57;1139047;-77
2021/04/24 16:50:09;;;;;;;4.03;2.40;;;;;;;10.56;37.38;101225.72;5087062;57;1138419;-75
2021/04/24 16:55:17;;;;;;;5.60;3.27;;;;;;;10.74;37.68;101226.30;5086999;57;1138765;-76
2021/04/24 17:00:24;;;;;;;7.70;3.35;;;;;;;10.84;37.20;101228.72;5087026;57;1138757;-75
2021/04/24 17:05:29;;;;;;;5.77;3.97;;;;;;;10.85;36.83;101228.59;5087539;57;1138499;-77
2021/04/24 17:10:35;;;;;;;18.03;8.07;;;;;;;10.82;37.27;101235.91;5086732;57;1138808;-75
2021/04/24 17:15:41;;;;;;;12.57;6.90;;;;;;;10.72;37.27;101233.48;5086895;57;1140353;-76
2021/04/24 17:20:47;;;;;;;13.77;5.60;;;;;;;10.65;38.21;101233.06;5086639;57;1140402;-74
2021/04/24 17:25:53;;;;;;;4.50;2.07;;;;;;;10.56;37.10;101237.63;5086498;57;1140384;-75
2021/04/24 17:30:59;;;;;;;9.30;3.37;;;;;;;10.41;35.15;101242.12;5070107;56;1138755;-72
2021/04/24 17:36:06;;;;;;;4.17;2.47;;;;;;;10.23;36.38;101249.45;5059780;56;1138729;-73
2021/04/24 17:41:12;;;;;;;9.40;4.40;;;;;;;10.10;36.83;101248.98;5046734;56;1139032;-77
2021/04/24 17:46:17;;;;;;;11.03;4.35;;;;;;;10.01;37.38;101256.19;5058212;56;1138784;-75
2021/04/24 17:51:23;;;;;;;4.42;2.30;;;;;;;9.92;37.55;101256.78;5060644;56;1141143;-74
2021/04/24 17:56:29;;;;;;;4.67;2.70;;;;;;;9.82;37.50;101259.14;5062836;56;1136773;-74
2021/04/24 18:01:34;;;;;;;5.00;2.50;;;;;;;9.69;37.61;101260.84;5056483;56;1136630;-74
2021/04/24 18:06:41;;;;;;;2.50;1.43;;;;;;;9.52;37.33;101269.34;5055492;56;1136402;-73
2021/04/24 18:11:47;;;;;;;8.00;2.73;;;;;;;9.38;37.36;101269.33;5081852;56;1134261;-72
2021/04/24 18:16:52;;;;;;;16.60;5.70;;;;;;;9.20;37.99;101280.99;5061347;56;1134820;-73
2021/04/24 18:21:58;;;;;;;30.73;14.17;;;;;;;9.16;38.70;101287.41;5076059;56;1136601;-82
2021/04/24 18:27:04;;;;;;;217.97;102.60;;;;;;;9.04;39.08;101292.92;5056843;56;1138950;-70
2021/04/24 18:32:10;;;;;;;246.72;111.57;;;;;;;9.02;39.37;101304.50;5073908;56;1142937;-73
2021/04/24 18:37:16;;;;;;;214.53;105.03;;;;;;;8.88;39.85;101302.67;5087009;56;1152636;-73
2021/04/24 18:42:22;;;;;;;102.63;52.63;;;;;;;8.84;40.25;101306.45;5051103;56;1142752;-73
2021/04/24 18:47:28;;;;;;;159.70;76.20;;;;;;;8.74;40.61;101312.70;5078645;56;1140898;-74
2021/04/24 18:52:33;;;;;;;86.70;47.90;;;;;;;8.76;41.17;101308.66;5094410;57;1140369;-72
2021/04/24 18:57:39;;;;;;;99.40;53.50;;;;;;;8.76;41.27;101321.37;5100822;57;1138293;-72
2021/04/24 19:02:45;;;;;;;71.43;47.07;;;;;;;8.73;41.56;101314.95;5100985;57;1138493;-73
2021/04/24 19:07:51;;;;;;;72.23;43.70;;;;;;;8.72;42.02;101317.21;5101139;57;1138340;-72
2021/04/24 19:12:57;;;;;;;84.73;44.33;;;;;;;8.71;42.37;101318.14;5101167;57;1138496;-71
2021/04/24 19:18:05;;;;;;;102.53;52.23;;;;;;;8.68;42.57;101313.07;5101164;57;1139061;-71
2021/04/24 19:23:11;;;;;;;107.87;50.27;;;;;;;8.56;42.62;101312.42;5101031;57;1140932;-71
2021/04/24 19:28:18;;;;;;;58.33;26.47;;;;;;;8.43;42.97;101318.01;5101161;57;1140917;-73
2021/04/24 19:33:24;;;;;;;45.78;20.62;;;;;;;8.23;42.68;101319.11;5101365;57;1138843;-72
2021/04/24 19:38:30;;;;;;;21.10;10.30;;;;;;;7.99;42.71;101326.55;5101341;57;1138794;-72
2021/04/24 19:43:36;;;;;;;17.93;9.53;;;;;;;7.91;43.27;101326.58;5101127;57;1138758;-72
2021/04/24 19:48:41;;;;;;;27.87;12.87;;;;;;;7.87;43.58;101327.20;5101271;57;1136947;-72
2021/04/24 19:53:47;;;;;;;50.23;20.35;;;;;;;7.90;44.01;101326.20;5100916;57;1138775;-71
2021/04/24 19:58:53;;;;;;;50.77;19.67;;;;;;;7.90;43.81;101328.36;5101148;57;1138855;-73
2021/04/24 20:03:58;;;;;;;23.97;10.77;;;;;;;7.84;44.01;101330.00;5101075;57;1138802;-72
2021/04/24 20:09:05;;;;;;;17.33;7.50;;;;;;;7.74;43.78;101328.33;5101018;57;1138819;-72
2021/04/24 20:14:11;;;;;;;13.23;6.83;;;;;;;7.67;43.62;101331.35;4936903;59;1136792;-72
2021/04/24 20:19:17;;;;;;;30.57;14.50;;;;;;;7.62;43.95;101334.71;5101526;57;1137388;-71
2021/04/24 20:24:22;;;;;;;34.00;12.67;;;;;;;7.55;44.02;101342.06;5101137;57;1138826;-71
2021/04/24 20:29:28;;;;;;;30.15;12.85;;;;;;;7.51;44.42;101335.71;5099976;57;1138658;-71
2021/04/24 20:34:33;;;;;;;23.77;9.97;;;;;;;7.51;44.73;101339.20;5098858;57;1138919;-72
2021/04/24 20:39:40;;;;;;;19.10;8.63;;;;;;;7.53;44.87;101343.06;5098475;57;1136211;-73
2021/04/24 20:44:45;;;;;;;20.23;7.27;;;;;;;7.49;44.57;101338.88;5099086;57;1136634;-72
2021/04/24 20:49:51;;;;;;;12.10;5.25;;;;;;;7.41;44.45;101334.03;5099015;57;1136509;-72
2021/04/24 20:54:57;;;;;;;12.37;6.75;;;;;;;7.38;44.86;101336.35;5099070;57;1136452;-74
2021/04/24 21:00:04;;;;;;;7.10;4.60;;;;;;;7.33;44.54;101346.75;5099172;57;1136496;-73
2021/04/24 21:05:12;;;;;;;5.77;3.30;;;;;;;7.20;44.69;101344.32;5099323;57;1134496;-73
2021/04/24 21:10:17;;;;;;;11.93;5.33;;;;;;;7.16;44.67;101346.28;5099604;57;1134631;-72
2021/04/24 21:15:23;;;;;;;13.18;6.30;;;;;;;7.07;44.59;101349.34;5099176;57;1136935;-72
2021/04/24 21:20:29;;;;;;;18.90;9.60;;;;;;;7.04;44.55;101354.75;5099273;57;1136664;-72
2021/04/24 21:25:34;;;;;;;11.53;5.47;;;;;;;6.93;44.26;101353.13;5099183;57;1136790;-73
2021/04/24 21:30:40;;;;;;;7.83;3.80;;;;;;;6.86;44.07;101351.74;5099718;57;1136706;-72
2021/04/24 21:35:46;;;;;;;11.43;4.57;;;;;;;6.77;43.00;101351.70;5101404;57;1134669;-72
2021/04/24 21:40:52;;;;;;;5.93;3.07;;;;;;;6.66;42.04;101343.50;5100627;57;1136946;-73
2021/04/24 21:45:57;;;;;;;15.07;6.00;;;;;;;6.55;41.79;101344.02;5101065;57;1134773;-71
2021/04/24 21:51:03;;;;;;;11.07;2.93;;;;;;;6.49;42.13;101344.30;5101036;57;1136734;-73
2021/04/24 21:56:08;;;;;;;7.83;2.73;;;;;;;6.49;42.31;101335.56;5100440;57;1136728;-73
2021/04/24 22:01:14;;;;;;;6.37;2.77;;;;;;;6.42;41.95;101336.30;5097202;57;1134613;-70
2021/04/24 22:06:20;;;;;;;10.50;5.70;;;;;;;6.42;41.95;101336.30;5097388;57;1134563;-73
2021/04/24 22:11:26;;;;;;;8.35;4.87;;;;;;;6.43;42.29;101327.96;5097062;57;1136795;-72
2021/04/24 22:16:31;;;;;;;7.62;4.40;;;;;;;6.42;42.29;101328.87;5097348;57;1134701;-73
2021/04/24 22:21:37;;;;;;;18.37;6.93;;;;;;;6.37;41.83;101327.81;5097166;57;1134553;-71
2021/04/24 22:26:43;;;;;;;21.90;7.50;;;;;;;6.39;42.74;101332.53;5096590;57;1136644;-72
2021/04/24 22:31:48;;;;;;;9.80;4.83;;;;;;;6.40;42.51;101328.13;5095906;57;1136722;-71
2021/04/24 22:36:54;;;;;;;42.33;11.50;;;;;;;6.41;42.77;101328.52;5094378;57;1134409;-72
2021/04/24 22:41:59;;;;;;;59.47;14.47;;;;;;;6.43;42.89;101322.70;5093953;57;1138608;-72
2021/04/24 22:47:05;;;;;;;50.23;12.80;;;;;;;6.43;42.98;101321.39;5094073;57;1138636;-72
2021/04/24 22:52:11;;;;;;;35.78;12.47;;;;;;;6.38;43.34;101318.16;5094158;57;1138588;-71
2021/04/24 22:57:17;;;;;;;20.85;7.33;;;;;;;6.33;43.45;101322.30;5081898;57;1138558;-73
2021/04/24 23:02:23;;;;;;;18.80;6.15;;;;;;;6.22;43.54;101318.02;5093881;57;1136463;-70
2021/04/24 23:07:29;;;;;;;7.10;3.10;;;;;;;6.15;43.76;101321.84;5094622;57;1136746;-70
2021/04/24 23:12:35;;;;;;;9.48;4.28;;;;;;;6.00;43.35;101319.47;5094790;57;1134446;-71
2021/04/24 23:17:41;;;;;;;6.03;2.83;;;;;;;5.89;43.84;101316.48;5094675;57;1134747;-71